createdAt,value
2022-10-09T00:01:06.113Z,100.00
2022-10-09T00:03:37.050Z,100.00
2022-10-09T00:06:07.350Z,100.00
2022-10-09T00:08:35.623Z,100.00
2022-10-09T00:11:05.278Z,100.00
2022-10-09T00:13:34.119Z,100.00
2022-10-09T00:16:04.243Z,100.00
2022-10-09T00:18:32.675Z,100.00
2022-10-09T00:21:02.452Z,100.00
2022-10-09T00:23:30.143Z,100.00
2022-10-09T00:25:59.971Z,100.00
2022-10-09T00:28:29.973Z,100.00
2022-10-09T00:30:57.729Z,100.00
2022-10-09T00:33:25.663Z,100.00
2022-10-09T00:35:53.460Z,100.00
2022-10-09T00:38:22.704Z,100.00
2022-10-09T00:40:50.332Z,100.00
2022-10-09T00:43:19.738Z,100.00
2022-10-09T00:45:51.501Z,100.00
2022-10-09T00:48:19.093Z,100.00
2022-10-09T00:50:52.652Z,100.00
2022-10-09T00:53:24.390Z,100.00
2022-10-09T00:55:52.946Z,100.00
2022-10-09T00:58:22.256Z,100.00
2022-10-09T01:00:50.140Z,100.00
2022-10-09T01:03:18.078Z,100.00
2022-10-09T01:05:56.022Z,100.00
2022-10-09T01:08:31.607Z,100.00
2022-10-09T01:11:04.461Z,100.00
2022-10-09T01:13:38.896Z,100.00
2022-10-09T01:16:11.470Z,100.00
2022-10-09T01:18:47.237Z,100.00
2022-10-09T01:21:19.729Z,100.00
2022-10-09T01:24:07.575Z,100.00
2022-10-09T01:27:00.026Z,100.00
2022-10-09T01:29:33.148Z,100.00
2022-10-09T01:32:02.671Z,100.00
2022-10-09T01:34:32.265Z,100.00
2022-10-09T01:37:01.053Z,100.00
2022-10-09T01:39:31.323Z,100.00
2022-10-09T01:42:01.362Z,100.00
2022-10-09T01:44:30.833Z,100.00
2022-10-09T01:47:00.289Z,100.00
2022-10-09T01:49:39.759Z,100.00
2022-10-09T01:52:18.723Z,100.00
2022-10-09T01:55:05.047Z,100.00
2022-10-09T01:57:40.508Z,100.00
2022-10-09T02:00:11.094Z,100.00
2022-10-09T02:02:40.066Z,100.00
2022-10-09T02:05:10.647Z,100.00
2022-10-09T02:07:38.755Z,100.00
2022-10-09T02:10:09.494Z,100.00
2022-10-09T02:12:46.259Z,100.00
2022-10-09T02:15:14.368Z,100.00
2022-10-09T02:17:47.546Z,100.00
2022-10-09T02:20:21.607Z,100.00
2022-10-09T02:22:50.439Z,100.00
2022-10-09T02:25:18.894Z,100.00
2022-10-09T02:27:48.401Z,100.00
2022-10-09T02:30:17.884Z,100.00
2022-10-09T02:32:45.622Z,100.00
2022-10-09T02:35:13.707Z,100.00
2022-10-09T02:37:41.329Z,100.00
2022-10-09T02:40:10.943Z,100.00
2022-10-09T02:42:38.721Z,100.00
2022-10-09T02:45:09.547Z,100.00
2022-10-09T02:47:37.411Z,100.00
2022-10-09T02:50:06.195Z,100.00
2022-10-09T02:52:34.016Z,100.00
2022-10-09T02:55:01.914Z,100.00
2022-10-09T02:57:29.612Z,100.00
2022-10-09T02:59:57.880Z,100.00
2022-10-09T03:02:27.031Z,100.00
2022-10-09T03:04:54.626Z,100.00
2022-10-09T03:07:25.053Z,100.00
2022-10-09T03:09:52.606Z,100.00
2022-10-09T03:12:21.319Z,100.00
2022-10-09T03:14:50.352Z,100.00
2022-10-09T03:17:17.891Z,100.00
2022-10-09T03:19:46.855Z,100.00
2022-10-09T03:22:14.564Z,100.00
2022-10-09T03:24:42.297Z,100.00
2022-10-09T03:27:09.943Z,100.00
2022-10-09T03:29:38.280Z,100.00
2022-10-09T03:32:05.897Z,100.00
2022-10-09T03:34:33.968Z,100.00
2022-10-09T03:37:03.706Z,100.00
2022-10-09T03:39:31.446Z,100.00
2022-10-09T03:41:58.991Z,100.00
2022-10-09T03:44:26.686Z,100.00
2022-10-09T03:46:54.395Z,100.00
2022-10-09T03:49:22.175Z,100.00
2022-10-09T03:51:50.113Z,100.00
2022-10-09T03:54:20.745Z,100.00
2022-10-09T03:56:48.323Z,100.00
2022-10-09T03:59:16.087Z,100.00
2022-10-09T04:01:44.621Z,100.00
2022-10-09T04:04:12.401Z,100.00
2022-10-09T04:06:41.399Z,100.00
2022-10-09T04:09:09.533Z,100.00
2022-10-09T04:11:38.612Z,100.00
2022-10-09T04:14:06.407Z,100.00
2022-10-09T04:16:34.487Z,100.00
2022-10-09T04:19:02.330Z,100.00
2022-10-09T04:21:30.185Z,100.00
2022-10-09T04:23:57.747Z,100.00
2022-10-09T04:26:26.414Z,100.00
2022-10-09T04:28:55.632Z,100.00
2022-10-09T04:31:23.256Z,100.00
2022-10-09T04:33:50.956Z,100.00
2022-10-09T04:36:18.776Z,100.00
2022-10-09T04:38:46.959Z,100.00
2022-10-09T04:41:15.017Z,100.00
2022-10-09T04:43:42.923Z,100.00
2022-10-09T04:46:13.668Z,100.00
2022-10-09T04:48:43.908Z,100.00
2022-10-09T04:51:12.635Z,100.00
2022-10-09T04:53:41.011Z,100.00
2022-10-09T04:56:10.686Z,100.00
2022-10-09T04:58:39.634Z,100.00
2022-10-09T05:01:08.321Z,100.00
2022-10-09T05:03:37.843Z,100.00
2022-10-09T05:06:08.055Z,100.00
2022-10-09T05:08:36.045Z,100.00
2022-10-09T05:11:07.798Z,100.00
2022-10-09T05:13:40.641Z,100.00
2022-10-09T05:16:12.726Z,100.00
2022-10-09T05:18:46.742Z,100.00
2022-10-09T05:21:15.792Z,100.00
2022-10-09T05:23:43.837Z,100.00
2022-10-09T05:26:14.894Z,100.00
2022-10-09T05:28:43.294Z,100.00
2022-10-09T05:31:17.788Z,100.00
2022-10-09T05:33:48.169Z,100.00
2022-10-09T05:36:16.632Z,100.00
2022-10-09T05:38:45.347Z,100.00
2022-10-09T05:41:15.176Z,100.00
2022-10-09T05:43:44.221Z,100.00
2022-10-09T05:46:13.786Z,99.34
2022-10-09T05:48:43.896Z,99.69
2022-10-09T05:51:15.029Z,98.87
2022-10-09T05:53:44.924Z,100.00
2022-10-09T05:56:14.709Z,97.97
2022-10-09T05:58:43.456Z,98.11
2022-10-09T06:01:11.606Z,97.49
2022-10-09T06:03:40.087Z,96.38
2022-10-09T06:06:08.406Z,94.58
2022-10-09T06:08:38.481Z,95.38
2022-10-09T06:11:10.312Z,94.99
2022-10-09T06:13:38.036Z,94.43
2022-10-09T06:16:06.605Z,94.26
2022-10-09T06:18:35.126Z,93.80
2022-10-09T06:21:03.242Z,92.83
2022-10-09T06:23:31.762Z,92.43
2022-10-09T06:26:03.622Z,92.37
2022-10-09T06:28:31.838Z,91.97
2022-10-09T06:31:03.101Z,90.16
2022-10-09T06:33:31.999Z,90.30
2022-10-09T06:36:09.551Z,89.62
2022-10-09T06:38:38.944Z,89.21
2022-10-09T06:41:10.931Z,87.98
2022-10-09T06:43:39.450Z,88.12
2022-10-09T06:46:10.124Z,87.04
2022-10-09T06:48:40.135Z,86.16
2022-10-09T06:51:09.733Z,86.08
2022-10-09T06:53:39.366Z,85.90
2022-10-09T06:56:09.440Z,84.82
2022-10-09T06:58:37.667Z,83.95
2022-10-09T07:01:07.434Z,83.29
2022-10-09T07:03:36.360Z,84.45
2022-10-09T07:06:12.062Z,82.23
2022-10-09T07:08:41.587Z,83.03
2022-10-09T07:11:12.882Z,82.58
2022-10-09T07:13:41.235Z,83.35
2022-10-09T07:16:12.088Z,81.96
2022-10-09T07:18:40.023Z,79.96
2022-10-09T07:21:09.891Z,80.25
2022-10-09T07:23:37.742Z,78.27
2022-10-09T07:26:13.804Z,79.25
2022-10-09T07:28:43.247Z,78.27
2022-10-09T07:31:11.881Z,78.24
2022-10-09T07:33:40.543Z,79.60
2022-10-09T07:36:09.407Z,77.12
2022-10-09T07:38:38.087Z,78.19
2022-10-09T07:41:07.418Z,77.65
2022-10-09T07:43:37.615Z,79.41
2022-10-09T07:46:06.872Z,76.77
2022-10-09T07:48:35.261Z,76.84
2022-10-09T07:51:09.228Z,75.74
2022-10-09T07:53:37.248Z,75.78
2022-10-09T07:56:06.791Z,74.58
2022-10-09T07:58:36.804Z,76.18
2022-10-09T08:01:06.294Z,74.98
2022-10-09T08:03:35.604Z,74.15
2022-10-09T08:06:03.663Z,73.12
2022-10-09T08:08:31.863Z,73.84
2022-10-09T08:11:08.140Z,75.41
2022-10-09T08:13:38.795Z,74.46
2022-10-09T08:16:07.555Z,71.29
2022-10-09T08:18:36.172Z,72.20
2022-10-09T08:21:07.660Z,71.98
2022-10-09T08:23:35.765Z,72.36
2022-10-09T08:26:04.179Z,69.10
2022-10-09T08:28:32.766Z,70.01
2022-10-09T08:31:10.404Z,68.50
2022-10-09T08:33:41.318Z,71.33
2022-10-09T08:36:11.068Z,68.93
2022-10-09T08:38:47.840Z,67.40
2022-10-09T08:41:38.435Z,66.77
2022-10-09T08:44:13.178Z,67.90
2022-10-09T08:46:51.703Z,67.34
2022-10-09T08:49:24.814Z,67.15
2022-10-09T08:51:54.804Z,66.89
2022-10-09T08:54:30.481Z,65.89
2022-10-09T08:57:01.108Z,67.23
2022-10-09T08:59:29.370Z,65.97
2022-10-09T09:02:07.812Z,65.42
2022-10-09T09:04:57.032Z,65.90
2022-10-09T09:07:33.566Z,65.64
2022-10-09T09:10:10.876Z,64.41
2022-10-09T09:12:48.982Z,63.84
2022-10-09T09:15:30.480Z,63.01
2022-10-09T09:18:10.851Z,62.74
2022-10-09T09:20:50.786Z,63.59
2022-10-09T09:23:24.059Z,62.55
2022-10-09T09:25:52.419Z,62.23
2022-10-09T09:28:24.646Z,61.49
2022-10-09T09:30:57.603Z,61.71
2022-10-09T09:33:42.239Z,62.57
2022-10-09T09:36:19.945Z,61.35
2022-10-09T09:39:35.168Z,59.94
2022-10-09T09:41:37.151Z,60.27
2022-10-09T09:44:06.275Z,61.78
2022-10-09T09:46:34.749Z,63.33
2022-10-09T09:49:14.961Z,62.72
2022-10-09T09:51:42.690Z,59.12
2022-10-09T09:54:17.511Z,62.78
2022-10-09T09:57:12.006Z,59.50
2022-10-09T09:59:37.735Z,59.05
2022-10-09T10:02:13.223Z,59.25
2022-10-09T10:04:52.338Z,60.28
2022-10-09T10:07:31.012Z,59.87
2022-10-09T10:10:06.410Z,58.44
2022-10-09T10:12:39.326Z,57.66
2022-10-09T10:15:18.133Z,58.13
2022-10-09T10:17:48.589Z,59.53
2022-10-09T10:20:18.453Z,57.35
2022-10-09T10:22:52.187Z,57.26
2022-10-09T10:25:23.659Z,57.58
2022-10-09T10:27:52.717Z,57.89
2022-10-09T10:30:20.428Z,57.07
2022-10-09T10:32:55.842Z,56.71
2022-10-09T10:35:28.265Z,57.34
2022-10-09T10:38:02.275Z,56.10
2022-10-09T10:40:33.420Z,57.06
2022-10-09T10:43:26.648Z,56.87
2022-10-09T10:46:02.213Z,56.52
2022-10-09T10:48:33.741Z,55.68
2022-10-09T10:51:18.534Z,55.64
2022-10-09T10:53:58.746Z,54.65
2022-10-09T10:56:30.810Z,55.35
2022-10-09T10:59:16.693Z,55.31
2022-10-09T11:01:55.545Z,55.09
2022-10-09T11:04:38.079Z,56.02
2022-10-09T11:07:20.600Z,55.74
2022-10-09T11:09:58.594Z,55.12
2022-10-09T11:12:47.893Z,56.18
2022-10-09T11:15:28.295Z,55.48
2022-10-09T11:18:03.089Z,55.72
2022-10-09T11:20:52.353Z,55.96
2022-10-09T11:23:33.003Z,56.71
2022-10-09T11:26:13.625Z,56.71
2022-10-09T11:28:45.866Z,57.11
2022-10-09T11:31:17.106Z,56.62
2022-10-09T11:33:45.968Z,55.78
2022-10-09T11:36:18.728Z,55.96
2022-10-09T11:38:53.331Z,55.53
2022-10-09T11:41:21.376Z,55.72
2022-10-09T11:44:04.139Z,55.34
2022-10-09T11:46:42.194Z,55.30
2022-10-09T11:49:17.388Z,56.06
2022-10-09T11:51:50.823Z,53.94
2022-10-09T11:54:22.842Z,54.22
2022-10-09T11:56:58.543Z,54.01
2022-10-09T11:59:28.562Z,55.34
2022-10-09T12:01:57.430Z,54.84
2022-10-09T12:04:54.041Z,55.51
2022-10-09T12:07:27.893Z,54.69
2022-10-09T12:10:02.932Z,54.44
2022-10-09T12:12:35.819Z,53.81
2022-10-09T12:15:22.440Z,54.08
2022-10-09T12:17:52.224Z,55.91
2022-10-09T12:20:22.859Z,54.58
2022-10-09T12:23:21.324Z,52.95
2022-10-09T12:25:45.572Z,53.72
2022-10-09T12:28:21.657Z,53.70
2022-10-09T12:30:50.861Z,52.54
2022-10-09T12:33:26.240Z,54.93
2022-10-09T12:36:04.039Z,54.96
2022-10-09T12:38:32.825Z,54.44
2022-10-09T12:41:05.090Z,53.66
2022-10-09T12:43:33.593Z,53.80
2022-10-09T12:46:01.691Z,54.58
2022-10-09T12:48:35.484Z,54.23
2022-10-09T12:51:03.142Z,53.57
2022-10-09T12:53:30.866Z,53.72
2022-10-09T12:56:01.353Z,54.92
2022-10-09T12:58:31.396Z,52.76
2022-10-09T13:01:01.627Z,53.73
2022-10-09T13:03:35.421Z,55.22
2022-10-09T13:06:05.704Z,53.47
2022-10-09T13:08:36.135Z,52.44
2022-10-09T13:11:18.092Z,54.75
2022-10-09T13:13:49.481Z,53.41
2022-10-09T13:16:17.364Z,53.15
2022-10-09T13:18:56.568Z,53.51
2022-10-09T13:21:29.028Z,54.60
2022-10-09T13:24:07.365Z,53.63
2022-10-09T13:26:38.274Z,53.73
2022-10-09T13:29:07.694Z,53.54
2022-10-09T13:31:35.739Z,53.05
2022-10-09T13:34:11.985Z,54.33
2022-10-09T13:36:40.530Z,54.11
2022-10-09T13:39:13.282Z,53.99
2022-10-09T13:41:43.296Z,54.40
2022-10-09T13:44:11.190Z,53.08
2022-10-09T13:46:38.923Z,52.95
2022-10-09T13:49:06.483Z,53.29
2022-10-09T13:51:34.259Z,53.27
2022-10-09T13:54:03.352Z,52.13
2022-10-09T13:56:31.152Z,52.23
2022-10-09T13:59:00.170Z,51.68
2022-10-09T14:01:28.382Z,52.08
2022-10-09T14:03:56.090Z,53.27
2022-10-09T14:06:26.155Z,51.90
2022-10-09T14:08:54.730Z,51.85
2022-10-09T14:11:22.303Z,51.32
2022-10-09T14:14:02.318Z,52.22
2022-10-09T14:16:31.270Z,53.60
2022-10-09T14:19:01.416Z,52.79
2022-10-09T14:21:31.557Z,52.64
2022-10-09T14:24:01.327Z,53.19
2022-10-09T14:26:31.108Z,51.80
2022-10-09T14:29:01.760Z,52.33
2022-10-09T14:31:29.998Z,52.56
2022-10-09T14:33:59.900Z,51.37
2022-10-09T14:36:28.387Z,50.91
2022-10-09T14:38:56.295Z,51.72
2022-10-09T14:41:24.184Z,52.77
2022-10-09T14:43:55.905Z,52.62
2022-10-09T14:46:26.265Z,53.63
2022-10-09T14:48:55.431Z,54.25
2022-10-09T14:51:26.379Z,53.66
2022-10-09T14:53:56.784Z,53.96
2022-10-09T14:56:25.496Z,53.76
2022-10-09T14:58:53.636Z,54.89
2022-10-09T15:01:24.568Z,54.79
2022-10-09T15:03:52.630Z,54.52
2022-10-09T15:06:21.323Z,54.64
2022-10-09T15:08:50.024Z,55.44
2022-10-09T15:11:19.015Z,54.47
2022-10-09T15:13:49.092Z,55.86
2022-10-09T15:16:18.954Z,54.97
2022-10-09T15:18:49.818Z,55.96
2022-10-09T15:21:19.842Z,56.12
2022-10-09T15:23:48.268Z,56.43
2022-10-09T15:26:16.782Z,55.41
2022-10-09T15:28:44.688Z,54.55
2022-10-09T15:31:19.887Z,55.82
2022-10-09T15:33:49.379Z,54.90
2022-10-09T15:36:18.088Z,54.64
2022-10-09T15:38:46.291Z,54.68
2022-10-09T15:41:24.936Z,56.59
2022-10-09T15:43:56.056Z,54.13
2022-10-09T15:46:24.231Z,55.19
2022-10-09T15:48:53.553Z,55.03
2022-10-09T15:51:21.388Z,55.55
2022-10-09T15:53:51.296Z,55.19
2022-10-09T15:56:20.766Z,55.17
2022-10-09T15:58:48.383Z,54.94
2022-10-09T16:01:17.343Z,55.47
2022-10-09T16:03:45.580Z,55.19
2022-10-09T16:06:18.367Z,54.85
2022-10-09T16:08:46.328Z,55.95
2022-10-09T16:11:17.856Z,55.29
2022-10-09T16:13:48.651Z,55.67
2022-10-09T16:16:23.600Z,55.44
2022-10-09T16:18:52.077Z,55.57
2022-10-09T16:21:23.300Z,55.86
2022-10-09T16:23:55.841Z,55.48
2022-10-09T16:26:27.035Z,56.25
2022-10-09T16:28:55.558Z,55.85
2022-10-09T16:31:25.470Z,56.54
2022-10-09T16:33:54.501Z,56.81
2022-10-09T16:36:24.187Z,56.34
2022-10-09T16:38:53.338Z,56.47
2022-10-09T16:41:23.210Z,57.38
2022-10-09T16:43:52.742Z,58.26
2022-10-09T16:46:22.776Z,58.66
2022-10-09T16:48:52.624Z,60.16
2022-10-09T16:51:21.793Z,61.39
2022-10-09T16:53:52.910Z,63.08
2022-10-09T16:56:23.182Z,63.03
2022-10-09T16:58:54.979Z,63.67
2022-10-09T17:01:23.025Z,63.93
2022-10-09T17:03:50.592Z,64.09
2022-10-09T17:06:18.720Z,64.74
2022-10-09T17:08:48.444Z,65.54
2022-10-09T17:11:18.202Z,65.71
2022-10-09T17:13:46.899Z,64.95
2022-10-09T17:16:18.501Z,64.21
2022-10-09T17:18:48.601Z,63.68
2022-10-09T17:21:17.745Z,63.38
2022-10-09T17:23:47.622Z,63.26
2022-10-09T17:26:19.142Z,63.67
2022-10-09T17:28:47.838Z,64.77
2022-10-09T17:31:18.100Z,63.99
2022-10-09T17:33:47.346Z,64.43
2022-10-09T17:36:16.435Z,64.10
2022-10-09T17:38:45.653Z,63.43
2022-10-09T17:41:17.147Z,62.79
2022-10-09T17:43:45.887Z,62.58
2022-10-09T17:46:14.773Z,63.11
2022-10-09T17:48:42.909Z,61.26
2022-10-09T17:51:14.504Z,61.54
2022-10-09T17:53:42.145Z,61.75
2022-10-09T17:56:10.081Z,60.93
2022-10-09T17:58:38.316Z,63.00
2022-10-09T18:01:08.689Z,64.79
2022-10-09T18:03:38.701Z,65.44
2022-10-09T18:06:08.824Z,65.22
2022-10-09T18:08:37.638Z,64.82
2022-10-09T18:11:07.908Z,63.46
2022-10-09T18:13:39.310Z,63.85
2022-10-09T18:16:13.343Z,63.82
2022-10-09T18:18:42.211Z,63.22
2022-10-09T18:21:12.258Z,62.42
2022-10-09T18:23:41.148Z,62.87
2022-10-09T18:26:10.012Z,62.61
2022-10-09T18:28:38.641Z,63.17
2022-10-09T18:31:07.761Z,63.20
2022-10-09T18:33:38.298Z,61.99
2022-10-09T18:36:07.852Z,62.96
2022-10-09T18:38:35.644Z,62.14
2022-10-09T18:41:03.495Z,63.51
2022-10-09T18:43:31.244Z,63.78
2022-10-09T18:45:58.918Z,64.49
2022-10-09T18:48:28.772Z,64.76
2022-10-09T18:50:58.962Z,65.17
2022-10-09T18:53:27.131Z,66.10
2022-10-09T18:55:54.860Z,66.56
2022-10-09T18:58:22.756Z,67.42
2022-10-09T19:00:50.358Z,68.65
2022-10-09T19:03:19.459Z,69.18
2022-10-09T19:05:47.946Z,69.71
2022-10-09T19:08:16.976Z,70.01
2022-10-09T19:10:50.342Z,70.97
2022-10-09T19:13:18.552Z,72.54
2022-10-09T19:15:53.468Z,74.71
2022-10-09T19:18:21.588Z,75.38
2022-10-09T19:20:49.508Z,75.27
2022-10-09T19:23:19.376Z,74.80
2022-10-09T19:25:48.983Z,75.06
2022-10-09T19:28:17.162Z,75.54
2022-10-09T19:30:45.925Z,76.51
2022-10-09T19:33:15.728Z,77.26
2022-10-09T19:35:47.050Z,78.51
2022-10-09T19:38:15.139Z,79.47
2022-10-09T19:40:44.843Z,80.59
2022-10-09T19:43:15.202Z,81.23
2022-10-09T19:45:43.326Z,82.72
2022-10-09T19:48:12.306Z,83.04
2022-10-09T19:50:41.239Z,83.20
2022-10-09T19:53:08.907Z,83.31
2022-10-09T19:55:36.787Z,83.66
2022-10-09T19:58:06.523Z,83.88
2022-10-09T20:00:40.577Z,83.90
2022-10-09T20:03:08.549Z,83.79
2022-10-09T20:05:36.609Z,83.47
2022-10-09T20:08:18.029Z,83.52
2022-10-09T20:10:48.230Z,83.65
2022-10-09T20:13:17.183Z,83.72
2022-10-09T20:15:46.402Z,84.19
2022-10-09T20:18:14.877Z,84.22
2022-10-09T20:20:47.445Z,84.18
2022-10-09T20:23:15.405Z,84.26
2022-10-09T20:25:43.008Z,84.18
2022-10-09T20:28:10.957Z,84.74
2022-10-09T20:30:40.236Z,84.56
2022-10-09T20:33:08.270Z,84.96
2022-10-09T20:35:41.726Z,84.82
2022-10-09T20:38:09.467Z,85.18
2022-10-09T20:40:37.781Z,85.44
2022-10-09T20:43:05.423Z,85.57
2022-10-09T20:45:40.803Z,85.68
2022-10-09T20:48:09.198Z,86.02
2022-10-09T20:50:37.133Z,86.30
2022-10-09T20:53:05.174Z,86.95
2022-10-09T20:55:34.058Z,87.25
2022-10-09T20:58:02.253Z,87.29
2022-10-09T21:00:30.022Z,87.42
2022-10-09T21:03:01.800Z,88.05
2022-10-09T21:05:29.915Z,87.95
2022-10-09T21:07:58.876Z,88.50
2022-10-09T21:10:26.652Z,88.35
2022-10-09T21:12:54.319Z,88.48
2022-10-09T21:15:24.921Z,88.36
2022-10-09T21:17:52.844Z,88.42
2022-10-09T21:20:21.948Z,88.42
2022-10-09T21:22:49.810Z,88.34
2022-10-09T21:25:17.880Z,88.83
2022-10-09T21:27:45.967Z,88.94
2022-10-09T21:30:14.308Z,89.50
2022-10-09T21:32:43.853Z,89.28
2022-10-09T21:35:11.407Z,88.96
2022-10-09T21:37:40.535Z,88.96
2022-10-09T21:40:10.350Z,89.14
2022-10-09T21:42:38.600Z,89.08
2022-10-09T21:45:07.143Z,89.04
2022-10-09T21:47:34.989Z,88.60
2022-10-09T21:50:02.994Z,88.18
2022-10-09T21:52:30.812Z,88.14
2022-10-09T21:55:00.529Z,87.32
2022-10-09T21:57:28.197Z,86.71
2022-10-09T21:59:56.053Z,86.22
2022-10-09T22:02:24.016Z,85.76
2022-10-09T22:04:51.551Z,85.40
2022-10-09T22:07:19.697Z,85.32
2022-10-09T22:09:47.332Z,85.23
2022-10-09T22:12:16.327Z,85.18
2022-10-09T22:14:44.406Z,85.22
2022-10-09T22:17:12.441Z,85.65
2022-10-09T22:19:42.689Z,86.21
2022-10-09T22:22:10.886Z,86.29
2022-10-09T22:24:38.535Z,87.02
2022-10-09T22:27:06.911Z,86.55
2022-10-09T22:29:36.211Z,86.71
2022-10-09T22:32:04.118Z,87.01
2022-10-09T22:34:32.418Z,87.24
2022-10-09T22:37:00.014Z,87.30
2022-10-09T22:39:28.448Z,87.25
2022-10-09T22:41:56.029Z,87.46
2022-10-09T22:44:23.566Z,87.43
2022-10-09T22:46:52.812Z,87.64
2022-10-09T22:49:20.429Z,87.81
2022-10-09T22:51:48.625Z,88.20
2022-10-09T22:54:16.495Z,88.44
2022-10-09T22:56:45.870Z,88.59
2022-10-09T22:59:15.010Z,88.65
2022-10-09T23:01:45.115Z,89.13
2022-10-09T23:04:16.856Z,89.09
2022-10-09T23:06:46.568Z,89.28
2022-10-09T23:09:17.534Z,89.33
2022-10-09T23:11:45.096Z,89.67
2022-10-09T23:14:13.674Z,90.09
2022-10-09T23:16:43.519Z,90.22
2022-10-09T23:19:11.413Z,90.55
2022-10-09T23:21:43.642Z,90.75
2022-10-09T23:24:13.880Z,90.94
2022-10-09T23:26:43.167Z,90.80
2022-10-09T23:29:15.074Z,91.12
2022-10-09T23:31:43.260Z,91.31
2022-10-09T23:34:11.981Z,90.85
2022-10-09T23:36:42.933Z,91.28
2022-10-09T23:39:10.735Z,91.51
2022-10-09T23:41:38.405Z,91.38
2022-10-09T23:44:06.169Z,91.64
2022-10-09T23:46:34.324Z,91.76
2022-10-09T23:49:02.198Z,91.86
2022-10-09T23:51:30.246Z,92.16
2022-10-09T23:53:59.632Z,92.19
2022-10-09T23:56:29.283Z,92.49
2022-10-09T23:58:58.047Z,92.49
